Terminal Aerodrome Forecast
Issued by NWS

Home | Current Version | Previous Version | Text Only | Print | Product List | Glossary On
Versions: 1 2 3 4 5 6 7 8 9 10 11 12 13 14 15 16 17
000
FTUS45 KPSR 241737
TAFBLH
TAF
KBLH 241737Z 2418/2518 18016KT 4SM HZ BKN015
     FM242000 17015KT 6SM HZ SCT010 SCT180
     FM250300 19014KT P6SM BKN200=

USA.gov is the U.S. government's official web portal to all federal, state and local government web resources and services.